sensor_id;sensor_type;location;lat;lon;timestamp;P1;durP1;ratioP1;P2;durP2;ratioP2
38693;SDS011;24447;43.460;25.744;2023-11-22T00:00:08;9.75;;;4.82;;
38693;SDS011;24447;43.460;25.744;2023-11-22T00:02:35;10.88;;;4.68;;
38693;SDS011;24447;43.460;25.744;2023-11-22T00:05:02;12.93;;;5.18;;
38693;SDS011;24447;43.460;25.744;2023-11-22T00:07:30;13.20;;;4.88;;
38693;SDS011;24447;43.460;25.744;2023-11-22T00:09:56;9.02;;;3.72;;
38693;SDS011;24447;43.460;25.744;2023-11-22T00:12:23;15.25;;;5.03;;
38693;SDS011;24447;43.460;25.744;2023-11-22T00:14:49;21.58;;;6.53;;
38693;SDS011;24447;43.460;25.744;2023-11-22T00:17:16;12.38;;;4.13;;
38693;SDS011;24447;43.460;25.744;2023-11-22T00:19:45;9.60;;;5.07;;
38693;SDS011;24447;43.460;25.744;2023-11-22T00:22:12;14.38;;;4.63;;
38693;SDS011;24447;43.460;25.744;2023-11-22T00:24:41;9.00;;;4.63;;
38693;SDS011;24447;43.460;25.744;2023-11-22T00:27:07;11.65;;;4.25;;
38693;SDS011;24447;43.460;25.744;2023-11-22T00:29:35;10.95;;;4.03;;
38693;SDS011;24447;43.460;25.744;2023-11-22T00:32:01;12.02;;;5.10;;
38693;SDS011;24447;43.460;25.744;2023-11-22T00:34:27;24.13;;;7.70;;
38693;SDS011;24447;43.460;25.744;2023-11-22T00:36:53;21.10;;;7.75;;
38693;SDS011;24447;43.460;25.744;2023-11-22T00:39:19;29.20;;;10.57;;
38693;SDS011;24447;43.460;25.744;2023-11-22T00:41:44;36.72;;;13.13;;
38693;SDS011;24447;43.460;25.744;2023-11-22T00:44:11;28.60;;;9.73;;
38693;SDS011;24447;43.460;25.744;2023-11-22T00:46:37;30.67;;;10.98;;
38693;SDS011;24447;43.460;25.744;2023-11-22T00:49:03;29.67;;;10.32;;
38693;SDS011;24447;43.460;25.744;2023-11-22T00:51:30;18.90;;;7.22;;
38693;SDS011;24447;43.460;25.744;2023-11-22T00:53:57;24.13;;;9.35;;
38693;SDS011;24447;43.460;25.744;2023-11-22T00:56:23;28.05;;;10.10;;
38693;SDS011;24447;43.460;25.744;2023-11-22T00:58:49;26.17;;;8.55;;
38693;SDS011;24447;43.460;25.744;2023-11-22T01:01:21;27.23;;;10.05;;
38693;SDS011;24447;43.460;25.744;2023-11-22T01:03:47;55.05;;;19.85;;
38693;SDS011;24447;43.460;25.744;2023-11-22T01:06:13;97.68;;;35.28;;
38693;SDS011;24447;43.460;25.744;2023-11-22T01:08:39;45.10;;;16.85;;
38693;SDS011;24447;43.460;25.744;2023-11-22T01:11:06;38.38;;;13.20;;
38693;SDS011;24447;43.460;25.744;2023-11-22T01:13:32;29.13;;;12.68;;
38693;SDS011;24447;43.460;25.744;2023-11-22T01:16:05;27.05;;;11.80;;
38693;SDS011;24447;43.460;25.744;2023-11-22T01:18:31;25.70;;;9.77;;
38693;SDS011;24447;43.460;25.744;2023-11-22T01:20:57;22.58;;;9.00;;
38693;SDS011;24447;43.460;25.744;2023-11-22T01:23:23;23.23;;;8.23;;
38693;SDS011;24447;43.460;25.744;2023-11-22T01:25:49;25.63;;;9.95;;
38693;SDS011;24447;43.460;25.744;2023-11-22T01:28:15;26.98;;;8.70;;
38693;SDS011;24447;43.460;25.744;2023-11-22T01:30:44;23.50;;;9.32;;
38693;SDS011;24447;43.460;25.744;2023-11-22T01:33:14;30.23;;;9.65;;
38693;SDS011;24447;43.460;25.744;2023-11-22T01:35:40;16.52;;;6.10;;
38693;SDS011;24447;43.460;25.744;2023-11-22T01:38:07;14.90;;;6.35;;
38693;SDS011;24447;43.460;25.744;2023-11-22T01:40:33;15.18;;;6.05;;
38693;SDS011;24447;43.460;25.744;2023-11-22T01:42:59;20.00;;;6.50;;
38693;SDS011;24447;43.460;25.744;2023-11-22T01:45:27;21.10;;;8.18;;
38693;SDS011;24447;43.460;25.744;2023-11-22T01:47:53;23.77;;;8.30;;
38693;SDS011;24447;43.460;25.744;2023-11-22T01:50:19;26.98;;;9.77;;
38693;SDS011;24447;43.460;25.744;2023-11-22T01:52:45;29.55;;;10.18;;
38693;SDS011;24447;43.460;25.744;2023-11-22T01:55:12;20.60;;;8.18;;
38693;SDS011;24447;43.460;25.744;2023-11-22T01:57:40;21.25;;;9.05;;
38693;SDS011;24447;43.460;25.744;2023-11-22T02:00:07;22.95;;;7.32;;
38693;SDS011;24447;43.460;25.744;2023-11-22T02:02:39;18.42;;;7.65;;
38693;SDS011;24447;43.460;25.744;2023-11-22T02:05:05;21.20;;;8.48;;
38693;SDS011;24447;43.460;25.744;2023-11-22T02:07:31;20.15;;;7.93;;
38693;SDS011;24447;43.460;25.744;2023-11-22T02:09:57;26.13;;;10.25;;
38693;SDS011;24447;43.460;25.744;2023-11-22T02:12:23;39.03;;;13.77;;
38693;SDS011;24447;43.460;25.744;2023-11-22T02:14:49;26.92;;;10.25;;
38693;SDS011;24447;43.460;25.744;2023-11-22T02:17:15;26.80;;;9.52;;
38693;SDS011;24447;43.460;25.744;2023-11-22T02:19:44;23.67;;;9.77;;
38693;SDS011;24447;43.460;25.744;2023-11-22T02:22:10;27.15;;;10.93;;
38693;SDS011;24447;43.460;25.744;2023-11-22T02:24:36;22.15;;;8.57;;
38693;SDS011;24447;43.460;25.744;2023-11-22T02:27:02;25.08;;;9.48;;
38693;SDS011;24447;43.460;25.744;2023-11-22T02:29:28;24.02;;;8.82;;
38693;SDS011;24447;43.460;25.744;2023-11-22T02:31:54;22.50;;;8.50;;
38693;SDS011;24447;43.460;25.744;2023-11-22T02:34:20;21.95;;;7.28;;
38693;SDS011;24447;43.460;25.744;2023-11-22T02:36:46;25.10;;;7.80;;
38693;SDS011;24447;43.460;25.744;2023-11-22T02:39:16;19.67;;;8.35;;
38693;SDS011;24447;43.460;25.744;2023-11-22T02:41:42;17.95;;;7.38;;
38693;SDS011;24447;43.460;25.744;2023-11-22T02:44:08;25.83;;;8.77;;
38693;SDS011;24447;43.460;25.744;2023-11-22T02:46:34;28.20;;;9.13;;
38693;SDS011;24447;43.460;25.744;2023-11-22T02:49:00;25.50;;;9.07;;
38693;SDS011;24447;43.460;25.744;2023-11-22T02:51:25;15.50;;;6.75;;
38693;SDS011;24447;43.460;25.744;2023-11-22T02:53:52;20.77;;;7.45;;
38693;SDS011;24447;43.460;25.744;2023-11-22T02:56:19;22.25;;;7.82;;
38693;SDS011;24447;43.460;25.744;2023-11-22T02:58:46;23.33;;;8.00;;
38693;SDS011;24447;43.460;25.744;2023-11-22T03:01:12;22.83;;;8.18;;
38693;SDS011;24447;43.460;25.744;2023-11-22T03:03:38;18.95;;;8.85;;
38693;SDS011;24447;43.460;25.744;2023-11-22T03:06:05;21.42;;;8.75;;
38693;SDS011;24447;43.460;25.744;2023-11-22T03:08:31;16.67;;;6.35;;
38693;SDS011;24447;43.460;25.744;2023-11-22T03:10:57;20.67;;;7.13;;
38693;SDS011;24447;43.460;25.744;2023-11-22T03:13:23;19.13;;;6.65;;
38693;SDS011;24447;43.460;25.744;2023-11-22T03:15:49;15.23;;;6.35;;
38693;SDS011;24447;43.460;25.744;2023-11-22T03:18:15;21.20;;;7.85;;
38693;SDS011;24447;43.460;25.744;2023-11-22T03:20:41;21.98;;;6.95;;
38693;SDS011;24447;43.460;25.744;2023-11-22T03:23:08;17.08;;;7.03;;
38693;SDS011;24447;43.460;25.744;2023-11-22T03:25:35;15.23;;;7.43;;
38693;SDS011;24447;43.460;25.744;2023-11-22T03:28:02;25.25;;;8.57;;
38693;SDS011;24447;43.460;25.744;2023-11-22T03:30:28;26.60;;;9.90;;
38693;SDS011;24447;43.460;25.744;2023-11-22T03:32:54;33.95;;;12.52;;
38693;SDS011;24447;43.460;25.744;2023-11-22T03:35:20;31.25;;;10.50;;
38693;SDS011;24447;43.460;25.744;2023-11-22T03:37:47;25.63;;;9.50;;
38693;SDS011;24447;43.460;25.744;2023-11-22T03:40:12;24.08;;;10.00;;
38693;SDS011;24447;43.460;25.744;2023-11-22T03:42:39;28.30;;;9.35;;
38693;SDS011;24447;43.460;25.744;2023-11-22T03:45:05;14.93;;;6.45;;
38693;SDS011;24447;43.460;25.744;2023-11-22T03:47:32;20.58;;;7.15;;
38693;SDS011;24447;43.460;25.744;2023-11-22T03:49:58;13.85;;;5.22;;
38693;SDS011;24447;43.460;25.744;2023-11-22T03:52:27;13.43;;;5.75;;
38693;SDS011;24447;43.460;25.744;2023-11-22T03:54:53;14.68;;;6.47;;
38693;SDS011;24447;43.460;25.744;2023-11-22T03:57:19;20.73;;;6.43;;
38693;SDS011;24447;43.460;25.744;2023-11-22T03:59:45;18.80;;;7.78;;
38693;SDS011;24447;43.460;25.744;2023-11-22T04:02:11;20.10;;;7.13;;
38693;SDS011;24447;43.460;25.744;2023-11-22T04:04:37;24.10;;;8.13;;
38693;SDS011;24447;43.460;25.744;2023-11-22T04:07:05;14.95;;;6.57;;
38693;SDS011;24447;43.460;25.744;2023-11-22T04:09:31;33.92;;;10.18;;
38693;SDS011;24447;43.460;25.744;2023-11-22T04:11:58;26.05;;;9.52;;
38693;SDS011;24447;43.460;25.744;2023-11-22T04:14:24;21.73;;;8.35;;
38693;SDS011;24447;43.460;25.744;2023-11-22T04:16:52;27.92;;;10.60;;
38693;SDS011;24447;43.460;25.744;2023-11-22T04:19:18;35.25;;;13.65;;
38693;SDS011;24447;43.460;25.744;2023-11-22T04:21:44;41.83;;;13.88;;
38693;SDS011;24447;43.460;25.744;2023-11-22T04:24:10;25.33;;;11.57;;
38693;SDS011;24447;43.460;25.744;2023-11-22T04:26:37;28.85;;;9.43;;
38693;SDS011;24447;43.460;25.744;2023-11-22T04:29:03;30.30;;;11.23;;
38693;SDS011;24447;43.460;25.744;2023-11-22T04:31:30;25.45;;;9.02;;
38693;SDS011;24447;43.460;25.744;2023-11-22T04:33:56;22.58;;;9.48;;
38693;SDS011;24447;43.460;25.744;2023-11-22T04:36:24;25.33;;;11.05;;
38693;SDS011;24447;43.460;25.744;2023-11-22T04:38:50;25.30;;;9.90;;
38693;SDS011;24447;43.460;25.744;2023-11-22T04:41:16;21.40;;;9.38;;
38693;SDS011;24447;43.460;25.744;2023-11-22T04:43:43;27.45;;;10.80;;
38693;SDS011;24447;43.460;25.744;2023-11-22T04:46:10;24.98;;;10.50;;
38693;SDS011;24447;43.460;25.744;2023-11-22T04:48:36;26.80;;;10.45;;
38693;SDS011;24447;43.460;25.744;2023-11-22T04:51:04;17.98;;;8.35;;
38693;SDS011;24447;43.460;25.744;2023-11-22T04:53:30;24.63;;;9.15;;
38693;SDS011;24447;43.460;25.744;2023-11-22T04:55:57;28.63;;;12.35;;
38693;SDS011;24447;43.460;25.744;2023-11-22T04:58:24;31.90;;;12.32;;
38693;SDS011;24447;43.460;25.744;2023-11-22T05:00:50;29.83;;;14.15;;
38693;SDS011;24447;43.460;25.744;2023-11-22T05:03:16;25.33;;;11.80;;
38693;SDS011;24447;43.460;25.744;2023-11-22T05:05:42;22.30;;;9.77;;
38693;SDS011;24447;43.460;25.744;2023-11-22T05:08:08;23.60;;;9.55;;
38693;SDS011;24447;43.460;25.744;2023-11-22T05:10:34;41.38;;;14.02;;
38693;SDS011;24447;43.460;25.744;2023-11-22T05:13:00;30.92;;;13.93;;
38693;SDS011;24447;43.460;25.744;2023-11-22T05:15:26;26.30;;;10.13;;
38693;SDS011;24447;43.460;25.744;2023-11-22T05:17:53;24.50;;;10.10;;
38693;SDS011;24447;43.460;25.744;2023-11-22T05:20:18;31.20;;;11.30;;
38693;SDS011;24447;43.460;25.744;2023-11-22T05:22:44;41.78;;;15.88;;
38693;SDS011;24447;43.460;25.744;2023-11-22T05:25:10;30.55;;;12.50;;
38693;SDS011;24447;43.460;25.744;2023-11-22T05:27:36;44.55;;;16.30;;
38693;SDS011;24447;43.460;25.744;2023-11-22T05:30:02;57.83;;;17.15;;
38693;SDS011;24447;43.460;25.744;2023-11-22T05:32:29;36.25;;;14.00;;
38693;SDS011;24447;43.460;25.744;2023-11-22T05:34:56;23.27;;;9.93;;
38693;SDS011;24447;43.460;25.744;2023-11-22T05:37:22;26.88;;;11.15;;
38693;SDS011;24447;43.460;25.744;2023-11-22T05:39:48;29.83;;;13.98;;
38693;SDS011;24447;43.460;25.744;2023-11-22T05:42:14;19.33;;;7.88;;
38693;SDS011;24447;43.460;25.744;2023-11-22T05:44:40;29.33;;;8.10;;
38693;SDS011;24447;43.460;25.744;2023-11-22T05:47:06;26.80;;;9.75;;
38693;SDS011;24447;43.460;25.744;2023-11-22T05:49:33;26.10;;;11.63;;
38693;SDS011;24447;43.460;25.744;2023-11-22T05:51:59;31.90;;;14.10;;
38693;SDS011;24447;43.460;25.744;2023-11-22T05:54:25;31.02;;;13.25;;
38693;SDS011;24447;43.460;25.744;2023-11-22T05:56:51;29.90;;;10.65;;
38693;SDS011;24447;43.460;25.744;2023-11-22T05:59:17;26.50;;;11.35;;
38693;SDS011;24447;43.460;25.744;2023-11-22T06:01:43;26.45;;;10.15;;
38693;SDS011;24447;43.460;25.744;2023-11-22T06:04:09;28.20;;;11.75;;
38693;SDS011;24447;43.460;25.744;2023-11-22T06:06:35;28.77;;;9.70;;
38693;SDS011;24447;43.460;25.744;2023-11-22T06:09:02;32.42;;;12.85;;
38693;SDS011;24447;43.460;25.744;2023-11-22T06:11:30;35.80;;;14.38;;
38693;SDS011;24447;43.460;25.744;2023-11-22T06:13:56;41.55;;;16.10;;
38693;SDS011;24447;43.460;25.744;2023-11-22T06:16:22;40.30;;;16.15;;
38693;SDS011;24447;43.460;25.744;2023-11-22T06:18:48;33.15;;;12.57;;
38693;SDS011;24447;43.460;25.744;2023-11-22T06:21:14;33.60;;;13.63;;
38693;SDS011;24447;43.460;25.744;2023-11-22T06:23:40;25.92;;;11.07;;
38693;SDS011;24447;43.460;25.744;2023-11-22T06:26:07;23.88;;;10.07;;
38693;SDS011;24447;43.460;25.744;2023-11-22T06:28:33;21.95;;;9.45;;
38693;SDS011;24447;43.460;25.744;2023-11-22T06:31:00;26.30;;;9.43;;
38693;SDS011;24447;43.460;25.744;2023-11-22T06:33:26;25.08;;;9.50;;
38693;SDS011;24447;43.460;25.744;2023-11-22T06:35:52;27.70;;;10.27;;
38693;SDS011;24447;43.460;25.744;2023-11-22T06:38:18;27.48;;;10.77;;
38693;SDS011;24447;43.460;25.744;2023-11-22T06:40:43;28.23;;;9.25;;
38693;SDS011;24447;43.460;25.744;2023-11-22T06:43:09;29.17;;;9.85;;
38693;SDS011;24447;43.460;25.744;2023-11-22T06:45:35;26.65;;;10.73;;
38693;SDS011;24447;43.460;25.744;2023-11-22T06:48:01;20.40;;;9.35;;
38693;SDS011;24447;43.460;25.744;2023-11-22T06:50:27;27.92;;;9.35;;
38693;SDS011;24447;43.460;25.744;2023-11-22T06:52:53;20.42;;;9.60;;
38693;SDS011;24447;43.460;25.744;2023-11-22T06:55:19;20.33;;;9.27;;
38693;SDS011;24447;43.460;25.744;2023-11-22T06:57:45;22.48;;;8.93;;
38693;SDS011;24447;43.460;25.744;2023-11-22T07:00:11;23.42;;;9.45;;
38693;SDS011;24447;43.460;25.744;2023-11-22T07:02:37;19.60;;;9.30;;
38693;SDS011;24447;43.460;25.744;2023-11-22T07:05:04;23.77;;;8.63;;
38693;SDS011;24447;43.460;25.744;2023-11-22T07:07:37;20.40;;;7.43;;
38693;SDS011;24447;43.460;25.744;2023-11-22T07:10:03;26.20;;;9.60;;
38693;SDS011;24447;43.460;25.744;2023-11-22T07:12:33;28.40;;;10.80;;
38693;SDS011;24447;43.460;25.744;2023-11-22T07:14:59;26.77;;;9.70;;
38693;SDS011;24447;43.460;25.744;2023-11-22T07:17:25;19.60;;;8.80;;
38693;SDS011;24447;43.460;25.744;2023-11-22T07:19:53;21.23;;;7.05;;
38693;SDS011;24447;43.460;25.744;2023-11-22T07:22:20;25.05;;;9.20;;
38693;SDS011;24447;43.460;25.744;2023-11-22T07:24:48;24.70;;;8.27;;
38693;SDS011;24447;43.460;25.744;2023-11-22T07:27:17;23.50;;;9.23;;
38693;SDS011;24447;43.460;25.744;2023-11-22T07:29:44;28.92;;;9.50;;
38693;SDS011;24447;43.460;25.744;2023-11-22T07:32:10;24.45;;;8.68;;
38693;SDS011;24447;43.460;25.744;2023-11-22T07:34:37;22.15;;;7.70;;
38693;SDS011;24447;43.460;25.744;2023-11-22T07:37:04;26.95;;;10.82;;
38693;SDS011;24447;43.460;25.744;2023-11-22T07:39:32;23.65;;;9.23;;
38693;SDS011;24447;43.460;25.744;2023-11-22T07:42:00;27.10;;;9.32;;
38693;SDS011;24447;43.460;25.744;2023-11-22T07:44:26;24.23;;;11.20;;
38693;SDS011;24447;43.460;25.744;2023-11-22T07:46:52;32.97;;;10.45;;
38693;SDS011;24447;43.460;25.744;2023-11-22T07:49:19;23.98;;;10.15;;
38693;SDS011;24447;43.460;25.744;2023-11-22T07:51:46;25.05;;;9.88;;
38693;SDS011;24447;43.460;25.744;2023-11-22T07:54:12;23.98;;;8.65;;
38693;SDS011;24447;43.460;25.744;2023-11-22T07:56:41;30.13;;;10.43;;
38693;SDS011;24447;43.460;25.744;2023-11-22T07:59:08;28.98;;;9.95;;
38693;SDS011;24447;43.460;25.744;2023-11-22T08:01:38;26.05;;;9.82;;
38693;SDS011;24447;43.460;25.744;2023-11-22T08:04:04;25.65;;;9.30;;
38693;SDS011;24447;43.460;25.744;2023-11-22T08:06:33;27.95;;;11.40;;
38693;SDS011;24447;43.460;25.744;2023-11-22T08:09:00;35.38;;;12.60;;
38693;SDS011;24447;43.460;25.744;2023-11-22T08:11:26;26.90;;;11.13;;
38693;SDS011;24447;43.460;25.744;2023-11-22T08:13:53;28.88;;;11.57;;
38693;SDS011;24447;43.460;25.744;2023-11-22T08:18:50;30.75;;;11.88;;
38693;SDS011;24447;43.460;25.744;2023-11-22T08:21:16;27.13;;;12.27;;
38693;SDS011;24447;43.460;25.744;2023-11-22T08:23:42;34.25;;;11.77;;
38693;SDS011;24447;43.460;25.744;2023-11-22T08:26:08;27.20;;;12.77;;
38693;SDS011;24447;43.460;25.744;2023-11-22T08:28:34;27.42;;;11.77;;
38693;SDS011;24447;43.460;25.744;2023-11-22T08:31:00;26.67;;;10.60;;
38693;SDS011;24447;43.460;25.744;2023-11-22T08:33:26;24.27;;;10.52;;
38693;SDS011;24447;43.460;25.744;2023-11-22T08:35:53;24.63;;;10.55;;
38693;SDS011;24447;43.460;25.744;2023-11-22T08:38:23;24.90;;;10.90;;
38693;SDS011;24447;43.460;25.744;2023-11-22T08:40:51;20.95;;;7.88;;
38693;SDS011;24447;43.460;25.744;2023-11-22T08:43:17;21.67;;;7.88;;
38693;SDS011;24447;43.460;25.744;2023-11-22T08:45:48;19.70;;;8.70;;
38693;SDS011;24447;43.460;25.744;2023-11-22T08:48:14;29.08;;;8.98;;
38693;SDS011;24447;43.460;25.744;2023-11-22T08:50:42;24.98;;;9.73;;
38693;SDS011;24447;43.460;25.744;2023-11-22T08:53:09;27.27;;;10.05;;
38693;SDS011;24447;43.460;25.744;2023-11-22T08:55:36;28.73;;;9.40;;
38693;SDS011;24447;43.460;25.744;2023-11-22T08:58:02;30.92;;;10.88;;
38693;SDS011;24447;43.460;25.744;2023-11-22T09:00:27;26.80;;;9.43;;
38693;SDS011;24447;43.460;25.744;2023-11-22T09:02:57;39.15;;;9.77;;
38693;SDS011;24447;43.460;25.744;2023-11-22T09:05:23;27.42;;;10.20;;
38693;SDS011;24447;43.460;25.744;2023-11-22T09:07:49;19.00;;;8.70;;
38693;SDS011;24447;43.460;25.744;2023-11-22T09:10:16;19.40;;;8.30;;
38693;SDS011;24447;43.460;25.744;2023-11-22T09:12:44;26.83;;;8.80;;
38693;SDS011;24447;43.460;25.744;2023-11-22T09:15:13;37.00;;;11.35;;
38693;SDS011;24447;43.460;25.744;2023-11-22T09:17:44;24.00;;;12.40;;
38693;SDS011;24447;43.460;25.744;2023-11-22T09:20:17;22.67;;;10.73;;
38693;SDS011;24447;43.460;25.744;2023-11-22T09:25:13;28.30;;;11.05;;
38693;SDS011;24447;43.460;25.744;2023-11-22T09:27:49;30.92;;;12.32;;
38693;SDS011;24447;43.460;25.744;2023-11-22T09:30:19;22.80;;;9.68;;
38693;SDS011;24447;43.460;25.744;2023-11-22T09:33:03;29.15;;;10.75;;
38693;SDS011;24447;43.460;25.744;2023-11-22T09:35:33;25.98;;;9.55;;
38693;SDS011;24447;43.460;25.744;2023-11-22T09:38:00;45.38;;;13.52;;
38693;SDS011;24447;43.460;25.744;2023-11-22T09:40:27;32.30;;;12.13;;
38693;SDS011;24447;43.460;25.744;2023-11-22T09:42:54;19.42;;;9.10;;
38693;SDS011;24447;43.460;25.744;2023-11-22T09:45:22;22.13;;;8.23;;
38693;SDS011;24447;43.460;25.744;2023-11-22T09:47:50;21.50;;;8.82;;
38693;SDS011;24447;43.460;25.744;2023-11-22T09:50:20;29.17;;;10.07;;
38693;SDS011;24447;43.460;25.744;2023-11-22T09:52:50;31.23;;;10.73;;
38693;SDS011;24447;43.460;25.744;2023-11-22T09:55:19;30.02;;;12.45;;
38693;SDS011;24447;43.460;25.744;2023-11-22T09:57:47;35.67;;;12.75;;
38693;SDS011;24447;43.460;25.744;2023-11-22T10:00:13;28.88;;;11.82;;
38693;SDS011;24447;43.460;25.744;2023-11-22T10:02:41;23.27;;;8.93;;
38693;SDS011;24447;43.460;25.744;2023-11-22T10:05:07;18.63;;;9.52;;
38693;SDS011;24447;43.460;25.744;2023-11-22T10:07:37;22.73;;;9.30;;
38693;SDS011;24447;43.460;25.744;2023-11-22T10:10:03;34.72;;;15.52;;
38693;SDS011;24447;43.460;25.744;2023-11-22T10:12:30;20.40;;;9.40;;
38693;SDS011;24447;43.460;25.744;2023-11-22T10:15:12;25.33;;;9.85;;
38693;SDS011;24447;43.460;25.744;2023-11-22T10:17:39;29.85;;;10.52;;
38693;SDS011;24447;43.460;25.744;2023-11-22T10:20:05;23.92;;;8.80;;
38693;SDS011;24447;43.460;25.744;2023-11-22T10:22:46;33.63;;;9.68;;
38693;SDS011;24447;43.460;25.744;2023-11-22T10:25:15;29.67;;;10.15;;
38693;SDS011;24447;43.460;25.744;2023-11-22T10:27:44;37.72;;;10.52;;
38693;SDS011;24447;43.460;25.744;2023-11-22T10:30:11;30.27;;;11.77;;
38693;SDS011;24447;43.460;25.744;2023-11-22T10:32:37;30.95;;;11.05;;
38693;SDS011;24447;43.460;25.744;2023-11-22T10:35:05;26.83;;;8.80;;
38693;SDS011;24447;43.460;25.744;2023-11-22T10:37:32;26.35;;;12.10;;
38693;SDS011;24447;43.460;25.744;2023-11-22T10:39:59;28.90;;;11.20;;
38693;SDS011;24447;43.460;25.744;2023-11-22T10:42:25;25.55;;;11.18;;
38693;SDS011;24447;43.460;25.744;2023-11-22T10:44:56;32.03;;;11.43;;
38693;SDS011;24447;43.460;25.744;2023-11-22T10:47:22;31.52;;;12.00;;
38693;SDS011;24447;43.460;25.744;2023-11-22T10:49:48;30.48;;;12.45;;
38693;SDS011;24447;43.460;25.744;2023-11-22T10:52:14;34.63;;;13.02;;
38693;SDS011;24447;43.460;25.744;2023-11-22T10:54:42;30.45;;;12.02;;
38693;SDS011;24447;43.460;25.744;2023-11-22T10:57:10;29.90;;;12.90;;
38693;SDS011;24447;43.460;25.744;2023-11-22T10:59:37;29.20;;;11.35;;
38693;SDS011;24447;43.460;25.744;2023-11-22T11:02:07;24.00;;;10.80;;
38693;SDS011;24447;43.460;25.744;2023-11-22T11:04:42;26.70;;;10.45;;
38693;SDS011;24447;43.460;25.744;2023-11-22T11:07:13;28.08;;;13.23;;
38693;SDS011;24447;43.460;25.744;2023-11-22T11:09:40;28.10;;;13.13;;
38693;SDS011;24447;43.460;25.744;2023-11-22T11:12:07;32.08;;;12.70;;
38693;SDS011;24447;43.460;25.744;2023-11-22T11:14:33;32.08;;;11.98;;
38693;SDS011;24447;43.460;25.744;2023-11-22T11:16:59;31.67;;;12.48;;
38693;SDS011;24447;43.460;25.744;2023-11-22T11:19:25;29.50;;;13.00;;
38693;SDS011;24447;43.460;25.744;2023-11-22T11:21:52;35.97;;;14.57;;
38693;SDS011;24447;43.460;25.744;2023-11-22T11:24:22;31.77;;;12.48;;
38693;SDS011;24447;43.460;25.744;2023-11-22T11:26:48;31.75;;;14.18;;
38693;SDS011;24447;43.460;25.744;2023-11-22T11:31:57;32.58;;;13.77;;
38693;SDS011;24447;43.460;25.744;2023-11-22T11:34:23;27.70;;;9.90;;
38693;SDS011;24447;43.460;25.744;2023-11-22T11:36:53;35.90;;;12.23;;
38693;SDS011;24447;43.460;25.744;2023-11-22T11:39:24;30.83;;;12.45;;
38693;SDS011;24447;43.460;25.744;2023-11-22T11:41:53;27.58;;;10.18;;
38693;SDS011;24447;43.460;25.744;2023-11-22T11:44:33;31.50;;;13.07;;
38693;SDS011;24447;43.460;25.744;2023-11-22T11:47:04;32.28;;;13.30;;
38693;SDS011;24447;43.460;25.744;2023-11-22T11:49:36;36.40;;;15.35;;
38693;SDS011;24447;43.460;25.744;2023-11-22T11:52:04;32.38;;;13.13;;
38693;SDS011;24447;43.460;25.744;2023-11-22T11:54:30;27.23;;;13.02;;
38693;SDS011;24447;43.460;25.744;2023-11-22T11:56:59;25.38;;;11.88;;
38693;SDS011;24447;43.460;25.744;2023-11-22T11:59:26;30.10;;;11.63;;
38693;SDS011;24447;43.460;25.744;2023-11-22T12:01:52;33.15;;;11.90;;
38693;SDS011;24447;43.460;25.744;2023-11-22T12:04:22;31.70;;;12.85;;
38693;SDS011;24447;43.460;25.744;2023-11-22T12:06:49;33.95;;;13.13;;
38693;SDS011;24447;43.460;25.744;2023-11-22T12:09:27;41.55;;;14.45;;
38693;SDS011;24447;43.460;25.744;2023-11-22T12:11:55;26.05;;;13.15;;
38693;SDS011;24447;43.460;25.744;2023-11-22T12:14:24;26.83;;;11.48;;
38693;SDS011;24447;43.460;25.744;2023-11-22T12:16:51;31.95;;;12.55;;
38693;SDS011;24447;43.460;25.744;2023-11-22T12:19:23;27.02;;;12.13;;
38693;SDS011;24447;43.460;25.744;2023-11-22T12:21:50;34.95;;;13.05;;
38693;SDS011;24447;43.460;25.744;2023-11-22T12:24:16;26.27;;;10.93;;
38693;SDS011;24447;43.460;25.744;2023-11-22T12:26:46;29.67;;;12.57;;
38693;SDS011;24447;43.460;25.744;2023-11-22T12:29:16;27.02;;;11.48;;
38693;SDS011;24447;43.460;25.744;2023-11-22T12:31:49;31.15;;;12.10;;
38693;SDS011;24447;43.460;25.744;2023-11-22T12:34:18;34.55;;;14.32;;
38693;SDS011;24447;43.460;25.744;2023-11-22T12:36:45;40.38;;;17.92;;
38693;SDS011;24447;43.460;25.744;2023-11-22T12:39:15;43.10;;;16.67;;
38693;SDS011;24447;43.460;25.744;2023-11-22T12:41:47;33.90;;;12.93;;
38693;SDS011;24447;43.460;25.744;2023-11-22T12:44:16;37.45;;;16.13;;
38693;SDS011;24447;43.460;25.744;2023-11-22T12:46:50;40.10;;;13.73;;
38693;SDS011;24447;43.460;25.744;2023-11-22T12:49:24;37.95;;;14.00;;
38693;SDS011;24447;43.460;25.744;2023-11-22T12:51:54;32.53;;;13.35;;
38693;SDS011;24447;43.460;25.744;2023-11-22T12:54:22;31.83;;;13.88;;
38693;SDS011;24447;43.460;25.744;2023-11-22T12:56:49;37.28;;;17.00;;
38693;SDS011;24447;43.460;25.744;2023-11-22T12:59:23;32.65;;;12.10;;
38693;SDS011;24447;43.460;25.744;2023-11-22T13:01:53;23.70;;;10.52;;
38693;SDS011;24447;43.460;25.744;2023-11-22T13:04:21;26.05;;;11.18;;
38693;SDS011;24447;43.460;25.744;2023-11-22T13:06:47;26.42;;;11.23;;
38693;SDS011;24447;43.460;25.744;2023-11-22T13:09:13;33.83;;;11.50;;
38693;SDS011;24447;43.460;25.744;2023-11-22T13:11:41;28.08;;;12.63;;
38693;SDS011;24447;43.460;25.744;2023-11-22T13:14:11;28.98;;;11.73;;
38693;SDS011;24447;43.460;25.744;2023-11-22T13:16:41;29.13;;;13.17;;
38693;SDS011;24447;43.460;25.744;2023-11-22T13:19:10;27.02;;;12.88;;
38693;SDS011;24447;43.460;25.744;2023-11-22T13:21:37;29.23;;;13.35;;
38693;SDS011;24447;43.460;25.744;2023-11-22T13:24:06;38.83;;;15.50;;
38693;SDS011;24447;43.460;25.744;2023-11-22T13:26:34;53.97;;;14.93;;
38693;SDS011;24447;43.460;25.744;2023-11-22T13:29:01;29.90;;;12.75;;
38693;SDS011;24447;43.460;25.744;2023-11-22T13:31:27;35.00;;;14.30;;
38693;SDS011;24447;43.460;25.744;2023-11-22T13:33:54;28.98;;;13.45;;
38693;SDS011;24447;43.460;25.744;2023-11-22T13:36:22;32.15;;;13.23;;
38693;SDS011;24447;43.460;25.744;2023-11-22T13:38:50;23.63;;;9.80;;
38693;SDS011;24447;43.460;25.744;2023-11-22T13:41:17;22.23;;;9.15;;
38693;SDS011;24447;43.460;25.744;2023-11-22T13:43:49;25.02;;;10.73;;
38693;SDS011;24447;43.460;25.744;2023-11-22T13:46:17;29.60;;;10.52;;
38693;SDS011;24447;43.460;25.744;2023-11-22T13:48:44;17.13;;;7.07;;
38693;SDS011;24447;43.460;25.744;2023-11-22T13:51:11;17.17;;;6.22;;
38693;SDS011;24447;43.460;25.744;2023-11-22T13:53:38;15.75;;;6.10;;
38693;SDS011;24447;43.460;25.744;2023-11-22T13:56:10;11.10;;;5.07;;
38693;SDS011;24447;43.460;25.744;2023-11-22T13:58:37;9.93;;;4.15;;
38693;SDS011;24447;43.460;25.744;2023-11-22T14:01:04;11.68;;;4.78;;
38693;SDS011;24447;43.460;25.744;2023-11-22T14:03:35;15.90;;;5.38;;
38693;SDS011;24447;43.460;25.744;2023-11-22T14:06:01;10.55;;;4.07;;
38693;SDS011;24447;43.460;25.744;2023-11-22T14:08:31;12.93;;;5.32;;
38693;SDS011;24447;43.460;25.744;2023-11-22T14:10:57;8.40;;;4.68;;
38693;SDS011;24447;43.460;25.744;2023-11-22T14:13:24;10.88;;;4.47;;
38693;SDS011;24447;43.460;25.744;2023-11-22T14:15:51;12.82;;;4.75;;
38693;SDS011;24447;43.460;25.744;2023-11-22T14:18:18;10.38;;;4.03;;
38693;SDS011;24447;43.460;25.744;2023-11-22T14:20:45;7.32;;;3.45;;
38693;SDS011;24447;43.460;25.744;2023-11-22T14:23:13;9.07;;;3.90;;